^^
Datos históricos de la estación: Murcia-Puente Tocinos
Diario Informe para Marzo 29, 2019 Unidades:  Ingés    Métrico   Ambas
Diario Semanal Mensual Anual
  Máxima: Mínima: Promedio:
Temperatura: 91.8 °F 73.8 °F 81.9 °F
Punto de rocio: 69.8 °F 58.6 °F 64.9 °F
Humedad: 84% 34.3% 60%
Velocidad viento: 11.2mph 0mph 5.6mph
Racha viento: 19mph - -
Viento- - ESE
Presión: 29.8 in 29.7 in -
Precipitación: 0 in    
 
 
Tabla de datos para Marzo 29, 2019
Hora Temperatura Punto de rocio Presión Viento Velocidad viento Racha viento Humedad Intensidad lluvia(por hora) Nubes
00:04 76.6 °F 68.9 °F 29.8 in NE 8.1 mph 14 mph 77% 0 in
00:09 76.5 °F 69.1 °F 29.8 in NE 8 mph 13 mph 77.6% 0 in
00:14 76.5 °F 69.1 °F 29.8 in NE 7.6 mph 13 mph 78% 0 in
00:19 76.5 °F 69.1 °F 29.8 in NE 7.4 mph 12 mph 78.1% 0 in
00:24 76.3 °F 69.3 °F 29.8 in NNE 6.9 mph 13.8 mph 79% 0 in
00:29 76.1 °F 69.1 °F 29.8 in NE 7.1 mph 14 mph 79% 0 in
00:34 76.1 °F 69.4 °F 29.8 in NE 7.6 mph 14 mph 79.8% 0 in
00:39 76.1 °F 69.4 °F 29.8 in NE 7.5 mph 14 mph 80% 0 in
00:44 75.9 °F 69.3 °F 29.8 in NE 7.4 mph 13 mph 80% 0 in
00:49 75.9 °F 69.3 °F 29.8 in NE 7 mph 12 mph 80% 0 in
00:54 75.9 °F 69.3 °F 29.8 in NE 6.2 mph 10 mph 80% 0 in
00:59 75.7 °F 69.6 °F 29.8 in NNE 6.3 mph 11.5 mph 81% 0 in
01:04 75.7 °F 69.4 °F 29.8 in NE 6.4 mph 12 mph 81% 0 in
01:09 75.7 °F 69.4 °F 29.8 in NE 6.6 mph 12 mph 81% 0 in
01:14 75.6 °F 69.4 °F 29.8 in NE 6.9 mph 12 mph 81.2% 0 in
01:19 75.6 °F 69.6 °F 29.8 in NE 6.8 mph 10 mph 82% 0 in
01:24 75.6 °F 69.6 °F 29.8 in NE 6.4 mph 11.8 mph 82% 0 in
01:29 75.4 °F 69.4 °F 29.8 in NE 6.4 mph 12 mph 82% 0 in
01:34 75.4 °F 69.4 °F 29.8 in NE 6.4 mph 10 mph 82% 0 in
01:39 75.4 °F 69.4 °F 29.8 in NE 6.1 mph 9 mph 82% 0 in
01:44 75.2 °F 69.3 °F 29.8 in NE 5.4 mph 9.7 mph 82% 0 in
01:49 75 °F 69.1 °F 29.8 in NE 5.4 mph 10 mph 82% 0 in
01:54 74.8 °F 69.1 °F 29.8 in NE 5.4 mph 10.7 mph 82.2% 0 in
01:59 74.8 °F 69.3 °F 29.8 in NE 5.8 mph 11 mph 83% 0 in
02:04 74.8 °F 69.3 °F 29.8 in NE 6.4 mph 10 mph 83% 0 in
02:09 74.7 °F 69.3 °F 29.8 in NE 6.1 mph 9 mph 83% 0 in
02:14 74.7 °F 69.3 °F 29.8 in NE 5.4 mph 8.5 mph 83% 0 in
02:19 74.7 °F 69.1 °F 29.8 in NE 5.4 mph 10.4 mph 83% 0 in
02:24 74.5 °F 69.3 °F 29.8 in NE 5.4 mph 10 mph 83.6% 0 in
02:29 74.5 °F 69.3 °F 29.8 in NE 5.4 mph 9.2 mph 84% 0 in
02:34 74.5 °F 69.3 °F 29.8 in NE 5.4 mph 9.2 mph 84% 0 in
02:39 74.3 °F 69.1 °F 29.8 in NE 5.6 mph 9.2 mph 84% 0 in
02:44 74.1 °F 69.1 °F 29.8 in NE 5.9 mph 9 mph 84% 0 in
02:49 74.1 °F 69.1 °F 29.8 in NE 5.9 mph 9 mph 84% 0 in
02:54 74.1 °F 69.1 °F 29.8 in NE 5.9 mph 9 mph 84% 0 in
02:59 74.1 °F 69.1 °F 29.8 in NE 5.7 mph 8.1 mph 84% 0 in
03:04 74.1 °F 69.1 °F 29.8 in NE 5.2 mph 8 mph 84% 0 in
03:09 74.1 °F 69.1 °F 29.8 in NE 4.9 mph 7 mph 84% 0 in
03:14 74.1 °F 68.5 °F 29.8 in NE 4.3 mph 8.1 mph 83.1% 0 in
03:19 73.9 °F 68.5 °F 29.8 in NE 4.4 mph 8 mph 83% 0 in
03:24 73.9 °F 68.2 °F 29.8 in NE 4.7 mph 7 mph 82.4% 0 in
03:29 73.9 °F 68.2 °F 29.8 in NE 4.6 mph 7 mph 82% 0 in
03:34 73.9 °F 67.8 °F 29.8 in ENE 4.3 mph 7 mph 81.2% 0 in
03:39 73.8 °F 67.5 °F 29.8 in NE 3.9 mph 5.2 mph 80.6% 0 in
03:44 73.8 °F 66.9 °F 29.8 in Este 3.1 mph 5.9 mph 79.4% 0 in
03:49 73.8 °F 66.6 °F 29.8 in Este 3.1 mph 6 mph 78% 0 in
03:54 73.9 °F 66 °F 29.8 in Este 3.1 mph 5.2 mph 76.4% 0 in
03:59 73.9 °F 65.3 °F 29.8 in Este 3.1 mph 5 mph 74.6% 0 in
04:04 74.1 °F 65.1 °F 29.8 in Este 3.1 mph 5 mph 73.6% 0 in
04:09 74.1 °F 64.8 °F 29.8 in Este 3.1 mph 5.2 mph 72.4% 0 in
04:14 74.3 °F 64.4 °F 29.8 in Este 3.1 mph 5.2 mph 71.3% 0 in
04:19 74.3 °F 64.4 °F 29.8 in ESE 3.1 mph 5 mph 71% 0 in
04:24 74.5 °F 64.2 °F 29.8 in SE 3.1 mph 5.8 mph 70.3% 0 in
04:29 74.5 °F 64.2 °F 29.8 in SE 3.1 mph 6 mph 70.3% 0 in
04:34 74.5 °F 64.6 °F 29.8 in SE 3.1 mph 5 mph 71% 0 in
04:39 74.5 °F 64.8 °F 29.8 in Sur 2.7 mph 5.8 mph 71.8% 0 in
04:44 74.5 °F 64.9 °F 29.8 in SSE 1.8 mph 6 mph 72% 0 in
04:49 74.5 °F 64.9 °F 29.8 in SSE 2.2 mph 5.2 mph 72% 0 in
04:54 74.5 °F 64.9 °F 29.8 in SSE 3.1 mph 5.4 mph 72.1% 0 in
04:59 74.5 °F 65.3 °F 29.8 in SSO 3.1 mph 6 mph 73% 0 in
05:04 74.5 °F 65.5 °F 29.8 in SSO 3.1 mph 6.9 mph 73.9% 0 in
05:09 74.5 °F 65.8 °F 29.8 in SSO 3.2 mph 7 mph 74.6% 0 in
05:14 74.5 °F 66.4 °F 29.8 in SSO 3.6 mph 7 mph 76% 0 in
05:19 74.5 °F 66.4 °F 29.8 in SO 3.7 mph 7 mph 76% 0 in
05:24 74.5 °F 66.4 °F 29.8 in SSO 4 mph 7.4 mph 76.2% 0 in
05:29 74.5 °F 66.7 °F 29.8 in SSO 3.9 mph 7 mph 77% 0 in
05:34 74.3 °F 66.4 °F 29.8 in SSO 3.6 mph 6.9 mph 76.4% 0 in
05:39 74.1 °F 66.4 °F 29.8 in SO 3.6 mph 7 mph 76.7% 0 in
05:44 74.1 °F 66.4 °F 29.8 in SO 3.6 mph 6.9 mph 77.1% 0 in
05:49 74.1 °F 66.7 °F 29.8 in SO 3.6 mph 7 mph 78% 0 in
05:54 74.1 °F 66.7 °F 29.8 in SO 3.6 mph 6 mph 78% 0 in
05:59 74.1 °F 66.7 °F 29.8 in SO 3.4 mph 6 mph 78% 0 in
06:04 74.1 °F 66.7 °F 29.8 in OSO 2.9 mph 6.2 mph 77.8% 0 in
06:09 74.1 °F 66.4 °F 29.8 in SO 3.1 mph 6 mph 77% 0 in
06:14 74.1 °F 66.4 °F 29.8 in SO 3.6 mph 6 mph 77% 0 in
06:19 74.1 °F 66.4 °F 29.8 in SO 3.4 mph 6 mph 77% 0 in
06:24 74.1 °F 66.4 °F 29.8 in OSO 2.9 mph 6 mph 77% 0 in
06:29 74.1 °F 66.2 °F 29.8 in SO 3 mph 6 mph 76.6% 0 in
06:34 74.1 °F 66 °F 29.8 in SO 3.1 mph 6.9 mph 76% 0 in
06:39 74.1 °F 66 °F 29.8 in SO 3.1 mph 7 mph 76% 0 in
06:44 74.1 °F 66 °F 29.8 in SO 3.1 mph 5.9 mph 76% 0 in
06:49 74.1 °F 66 °F 29.8 in SO 3 mph 6 mph 76% 0 in
06:54 74.1 °F 66 °F 29.8 in SO 2.9 mph 5 mph 76% 0 in
06:59 74.1 °F 66 °F 29.8 in SSO 2.9 mph 5.2 mph 76% 0 in
07:04 73.9 °F 66 °F 29.8 in SSO 2.9 mph 5.9 mph 76.3% 0 in
07:09 73.9 °F 66.4 °F 29.8 in SSO 3.2 mph 7.4 mph 77% 0 in
07:14 73.9 °F 66.2 °F 29.8 in SSO 4 mph 7 mph 77% 0 in
07:19 73.8 °F 66.4 °F 29.8 in SO 4 mph 6.2 mph 77.7% 0 in
07:24 73.9 °F 66.6 °F 29.8 in SO 4 mph 6 mph 78% 0 in
07:29 73.9 °F 66.6 °F 29.8 in OSO 3.7 mph 6 mph 78% 0 in
07:34 73.9 °F 66.7 °F 29.8 in OSO 2.9 mph 4.6 mph 78% 0 in
07:39 74.1 °F 66.7 °F 29.8 in SO 2.5 mph 5.4 mph 78% 0 in
07:44 74.1 °F 67.1 °F 29.8 in SO 1.8 mph 6 mph 78.7% 0 in
07:49 74.3 °F 67.3 °F 29.8 in SO 1.8 mph 6 mph 79% 0 in
07:54 74.3 °F 67.5 °F 29.8 in Oeste 1.8 mph 4.6 mph 79.4% 0 in
07:59 74.3 °F 67.8 °F 29.8 in Oeste 1.8 mph 5 mph 80% 0 in
08:04 74.5 °F 67.6 °F 29.8 in Oeste 1.8 mph 5 mph 79.2% 0 in
08:09 74.5 °F 67.5 °F 29.8 in Oeste 1.8 mph 4 mph 78.9% 0 in
08:14 74.8 °F 67.5 °F 29.8 in Oeste 1.8 mph 3.1 mph 78% 0 in
08:19 75 °F 67.3 °F 29.8 in ONO 1.2 mph 3 mph 76.8% 0 in
08:24 75.4 °F 66.9 °F 29.8 in Calm   3.6 mph 75% 0 in
08:29 75.4 °F 66.9 °F 29.8 in NE 0.6 mph 4 mph 75% 0 in
08:34 75.2 °F 66.6 °F 29.8 in NE 1.8 mph 4 mph 74.8% 0 in
08:39 75.4 °F 66.7 °F 29.8 in NE 1.8 mph 4.6 mph 74.7% 0 in
08:44 75.7 °F 66.6 °F 29.8 in ESE 1.8 mph 5 mph 73.2% 0 in
08:49 75.7 °F 66.6 °F 29.8 in ESE 2.1 mph 5 mph 73% 0 in
08:54 75.7 °F 66.9 °F 29.8 in ESE 2.9 mph 5 mph 73.9% 0 in
08:59 76.1 °F 67.1 °F 29.8 in ENE 2.5 mph 4 mph 73.6% 0 in
09:04 76.6 °F 67.3 °F 29.8 in Este 1.8 mph 4 mph 73% 0 in
09:09 77.2 °F 67.8 °F 29.8 in Este 1.8 mph 5.2 mph 73% 0 in
09:14 77.4 °F 68 °F 29.8 in Sur 1.8 mph 5.4 mph 73.1% 0 in
09:19 76.8 °F 68.2 °F 29.8 in Sur 2.4 mph 6 mph 74.3% 0 in
09:24 76.8 °F 68.4 °F 29.8 in SE 3.6 mph 6 mph 75% 0 in
09:29 77.4 °F 68.4 °F 29.8 in SSE 3 mph 4.6 mph 74.3% 0 in
09:34 77.5 °F 68.4 °F 29.8 in SE 1.8 mph 5 mph 73.5% 0 in
09:39 77.9 °F 68.5 °F 29.8 in SE 1.9 mph 5 mph 72.9% 0 in
09:44 78.3 °F 68.5 °F 29.8 in ONO 2 mph 5 mph 72% 0 in
09:49 78.4 °F 68.4 °F 29.8 in Oeste 2 mph 5.2 mph 71.4% 0 in
09:54 78.4 °F 68.5 °F 29.8 in SO 2 mph 5 mph 71.4% 0 in
09:59 78.4 °F 68.4 °F 29.8 in SO 1.9 mph 5 mph 71% 0 in
10:04 78.4 °F 67.6 °F 29.8 in Oeste 1.8 mph 5 mph 69.6% 0 in
10:09 78.6 °F 67.6 °F 29.8 in NNO 2 mph 5.8 mph 69.2% 0 in
10:14 78.8 °F 68.2 °F 29.8 in NO 2.4 mph 6 mph 69.9% 0 in
10:19 79.2 °F 68 °F 29.8 in ONO 2.4 mph 5.2 mph 68.4% 0 in
10:24 79.3 °F 68 °F 29.8 in NO 2.4 mph 5 mph 68.1% 0 in
10:29 79.9 °F 68 °F 29.8 in NNE 2.2 mph 4.6 mph 66.9% 0 in
10:34 80.2 °F 67.6 °F 29.8 in NNE 1.8 mph 5.2 mph 65.6% 0 in
10:39 80.8 °F 67.6 °F 29.8 in NNO 2 mph 5 mph 64.2% 0 in
10:44 81.1 °F 67.3 °F 29.8 in NNE 2.4 mph 5 mph 62.9% 0 in
10:49 81.7 °F 67.1 °F 29.8 in NO 2.4 mph 5 mph 61.4% 0 in
10:54 81.9 °F 67.3 °F 29.8 in North 2.4 mph 5 mph 61.2% 0 in
10:59 82.2 °F 66.9 °F 29.8 in NNE 2.5 mph 5 mph 59.8% 0 in
11:04 82.6 °F 66.7 °F 29.8 in Este 2.9 mph 5 mph 59% 0 in
11:09 82.8 °F 66.6 °F 29.8 in SSE 2.5 mph 5 mph 58.3% 0 in
11:14 82.9 °F 66.6 °F 29.8 in OSO 1.8 mph 5 mph 58% 0 in
11:19 83.1 °F 66.6 °F 29.8 in NNE 2 mph 8.1 mph 57.4% 0 in
11:24 83.3 °F 66.4 °F 29.8 in NNO 2.4 mph 8.1 mph 57.1% 0 in
11:29 82.9 °F 66.2 °F 29.8 in NNO 2.7 mph 7 mph 57.2% 0 in
11:34 82.9 °F 66.6 °F 29.8 in NO 3.6 mph 6.9 mph 58% 0 in
11:39 83.3 °F 66.7 °F 29.8 in OSO 3.4 mph 7 mph 57.8% 0 in
11:44 83.7 °F 66.4 °F 29.8 in SSO 2.9 mph 8.1 mph 56.5% 0 in
11:49 83.8 °F 66 °F 29.8 in ENE 3.1 mph 8 mph 55.4% 0 in
11:54 84.4 °F 66.6 °F 29.8 in NE 3.6 mph 7 mph 55.5% 0 in
11:59 84.9 °F 66.9 °F 29.8 in Oeste 3 mph 6.2 mph 54.9% 0 in
12:04 85.5 °F 67.1 °F 29.8 in NE 1.8 mph 7.4 mph 54.4% 0 in
12:09 85.5 °F 66.7 °F 29.8 in NE 2.6 mph 10.4 mph 53.7% 0 in
12:14 85.5 °F 66.2 °F 29.8 in NE 4.3 mph 10 mph 53% 0 in
12:19 85.5 °F 66.2 °F 29.8 in NNE 4.3 mph 8.1 mph 53% 0 in
12:24 85.6 °F 66 °F 29.8 in ESE 4.3 mph 9.2 mph 52.2% 0 in
12:29 86 °F 65.5 °F 29.8 in SE 4.2 mph 9.2 mph 50.6% 0 in
12:34 86.2 °F 65.5 °F 29.8 in NNE 4 mph 9 mph 50% 0 in
12:39 86.4 °F 64.8 °F 29.8 in North 4.1 mph 8.5 mph 48.8% 0 in
12:44 86.5 °F 64.6 °F 29.8 in Este 4.3 mph 9 mph 48.1% 0 in
12:49 86.9 °F 64.8 °F 29.8 in NE 4.2 mph 8.7 mph 48% 0 in
12:54 87.3 °F 64 °F 29.8 in NE 4 mph 9.2 mph 45.9% 0 in
12:59 87.6 °F 63.7 °F 29.8 in ESE 4.1 mph 9 mph 45% 0 in
13:04 88.2 °F 63.5 °F 29.8 in ESE 4.3 mph 8 mph 44% 0 in
13:09 88.5 °F 63.9 °F 29.8 in NO 3.9 mph 7 mph 44% 0 in
13:14 89.1 °F 64 °F 29.8 in Este 3.1 mph 9.2 mph 43.6% 0 in
13:19 89.4 °F 63.3 °F 29.8 in SE 3.4 mph 9.2 mph 41.9% 0 in
13:24 89.8 °F 61.9 °F 29.8 in SSE 4 mph 9 mph 39.7% 0 in
13:29 89.8 °F 62.4 °F 29.8 in ENE 3.9 mph 9 mph 40.2% 0 in
13:34 90.1 °F 61.7 °F 29.8 in NE 3.6 mph 11.5 mph 38.8% 0 in
13:39 90.3 °F 61 °F 29.8 in NE 3.7 mph 12 mph 37.5% 0 in
13:44 90.7 °F 60.8 °F 29.8 in ENE 4 mph 9 mph 37.1% 0 in
13:49 90.9 °F 60.3 °F 29.8 in SE 4 mph 12.5 mph 36.1% 0 in
13:54 90.7 °F 59.7 °F 29.8 in SE 4 mph 13.8 mph 35.5% 0 in
13:59 90.5 °F 59.4 °F 29.8 in ESE 5.3 mph 14 mph 35.1% 0 in
14:04 90.3 °F 59.4 °F 29.8 in Sur 7.4 mph 14 mph 35.5% 0 in
14:09 90.7 °F 59.7 °F 29.8 in Este 6.6 mph 11 mph 35.7% 0 in
14:14 91 °F 59.4 °F 29.8 in SE 5.2 mph 11.8 mph 34.7% 0 in
14:19 91.2 °F 59.2 °F 29.8 in ESE 5.7 mph 12 mph 34.3% 0 in
14:24 90.9 °F 59.4 °F 29.8 in SE 6.9 mph 11 mph 35% 0 in
14:29 90.7 °F 59.4 °F 29.8 in SSO 6.4 mph 10.4 mph 35.1% 0 in
14:34 91 °F 60.8 °F 29.8 in SSE 5.4 mph 13.8 mph 36.6% 0 in
14:39 91.2 °F 61.9 °F 29.8 in SE 5.9 mph 15.2 mph 37.7% 0 in
14:44 91.4 °F 62.1 °F 29.8 in SE 6.9 mph 16.3 mph 37.9% 0 in
14:49 91 °F 62.6 °F 29.8 in SE 7.6 mph 16.1 mph 38.9% 0 in
14:54 91.2 °F 63.7 °F 29.8 in ESE 9.2 mph 16.1 mph 40.3% 0 in
14:59 91.2 °F 63.1 °F 29.8 in ESE 9.2 mph 15 mph 39.5% 0 in
15:04 91 °F 63.7 °F 29.8 in ESE 9.2 mph 19 mph 40.2% 0 in
15:09 91.2 °F 62.4 °F 29.8 in ESE 9 mph 19 mph 38.5% 0 in
15:14 91.2 °F 62.6 °F 29.8 in ESE 8.7 mph 17 mph 38.7% 0 in
15:19 91 °F 62.1 °F 29.8 in Este 8.1 mph 14 mph 38.1% 0 in
15:24 90.9 °F 62.2 °F 29.8 in SE 6.9 mph 16.3 mph 38.7% 0 in
15:29 91 °F 62.1 °F 29.8 in ESE 7.6 mph 16.1 mph 38.1% 0 in
15:34 91.6 °F 62.4 °F 29.8 in ESE 9.2 mph 17.3 mph 38.2% 0 in
15:39 91.8 °F 61.7 °F 29.8 in ESE 9 mph 17 mph 37% 0 in
15:44 91.2 °F 61.5 °F 29.8 in ESE 8.7 mph 15 mph 37.3% 0 in
15:49 91 °F 61.3 °F 29.8 in ESE 8.6 mph 17.3 mph 37.1% 0 in
15:54 91 °F 61.2 °F 29.8 in ESE 8.5 mph 17 mph 37.1% 0 in
15:59 91.2 °F 61.3 °F 29.8 in ESE 8.8 mph 16.3 mph 37% 0 in
16:04 91.2 °F 61.9 °F 29.8 in ESE 9.2 mph 18.5 mph 37.6% 0 in
16:09 91 °F 61.9 °F 29.8 in ESE 9.9 mph 19 mph 37.9% 0 in
16:14 91 °F 62.1 °F 29.8 in ESE 11.2 mph 18.5 mph 38.2% 0 in
16:19 90.9 °F 61.7 °F 29.8 in ESE 11.2 mph 19 mph 38% 0 in
16:24 90.9 °F 61.9 °F 29.8 in SE 11.2 mph 18 mph 38.3% 0 in
16:29 90.9 °F 62.1 °F 29.8 in ESE 10.9 mph 16.1 mph 38.4% 0 in
16:34 91 °F 62.2 °F 29.8 in SE 10.2 mph 16 mph 38.5% 0 in
16:39 91.4 °F 62.2 °F 29.8 in ESE 10 mph 18.5 mph 38% 0 in
16:44 91.2 °F 62.1 °F 29.8 in ESE 9.7 mph 19 mph 38% 0 in
16:49 91 °F 62.2 °F 29.8 in ESE 9.8 mph 16 mph 38.3% 0 in
16:54 91.6 °F 62.6 °F 29.8 in SE 10 mph 14 mph 38.4% 0 in
16:59 91.6 °F 62.4 °F 29.8 in SE 9.6 mph 19 mph 38% 0 in
17:04 91 °F 61.9 °F 29.8 in SE 8.7 mph 19 mph 38% 0 in
17:09 90.9 °F 61 °F 29.8 in SE 9.4 mph 16.1 mph 37% 0 in
17:14 90.9 °F 61.2 °F 29.8 in SE 10.7 mph 16.1 mph 37.1% 0 in
17:19 90.9 °F 61 °F 29.8 in SSE 10.4 mph 17 mph 37% 0 in
17:24 91 °F 61.2 °F 29.8 in SE 9.7 mph 17.3 mph 37.1% 0 in
17:29 91 °F 61.2 °F 29.8 in SE 9.8 mph 16.3 mph 37% 0 in
17:34 90.9 °F 61 °F 29.8 in SE 10 mph 16.1 mph 37% 0 in
17:39 90.7 °F 61.2 °F 29.8 in ESE 10.1 mph 16 mph 37.5% 0 in
17:44 90.7 °F 61.2 °F 29.8 in SE 10.2 mph 15 mph 37.4% 0 in
17:49 90.3 °F 61 °F 29.8 in ESE 10.4 mph 15.9 mph 37.6% 0 in
17:54 90.7 °F 61 °F 29.8 in ESE 10.7 mph 16 mph 37.3% 0 in
17:59 90.3 °F 61.2 °F 29.8 in ESE 10.5 mph 17.3 mph 37.7% 0 in
18:04 90.5 °F 61.3 °F 29.8 in SE 10.2 mph 17 mph 37.8% 0 in
18:09 90.7 °F 61.2 °F 29.8 in SE 10.1 mph 15.2 mph 37.5% 0 in
18:14 90.3 °F 61.5 °F 29.8 in SE 9.7 mph 17.5 mph 38.3% 0 in
18:19 90.1 °F 61.2 °F 29.8 in SE 9.7 mph 17 mph 38.2% 0 in
18:24 90 °F 61.2 °F 29.8 in ESE 9.7 mph 18.4 mph 38.3% 0 in
18:29 90.1 °F 61.2 °F 29.8 in SE 9.4 mph 18 mph 38% 0 in
18:34 90.1 °F 61 °F 29.8 in ESE 8.7 mph 16 mph 38% 0 in
18:39 90 °F 61 °F 29.7 in SE 9.1 mph 15 mph 38% 0 in
18:44 90.1 °F 61 °F 29.7 in SE 9.7 mph 14 mph 37.8% 0 in
18:49 90.1 °F 61 °F 29.8 in SE 9.3 mph 14.7 mph 38% 0 in
18:54 90 °F 61 °F 29.8 in SE 8.5 mph 15.9 mph 38% 0 in
18:59 90 °F 60.8 °F 29.8 in ESE 8.8 mph 16.1 mph 38% 0 in
19:04 89.8 °F 61.2 °F 29.8 in SE 9.2 mph 16 mph 38.4% 0 in
19:09 89.8 °F 61.5 °F 29.8 in SE 9 mph 15 mph 39% 0 in
19:14 89.8 °F 61.5 °F 29.8 in SE 8.7 mph 15 mph 39% 0 in
19:19 89.6 °F 61.3 °F 29.8 in SE 8.7 mph 16.1 mph 39% 0 in
19:24 89.6 °F 60.6 °F 29.7 in SE 8.7 mph 16.1 mph 38.2% 0 in
19:29 89.6 °F 60.8 °F 29.7 in SE 8.3 mph 16 mph 38.2% 0 in
19:34 89.4 °F 60.4 °F 29.7 in SE 7.4 mph 14 mph 38% 0 in
19:39 89.2 °F 61 °F 29.7 in ESE 7.6 mph 14 mph 38.9% 0 in
19:44 89.2 °F 60.4 °F 29.7 in ESE 8.1 mph 14 mph 38.3% 0 in
19:49 89.1 °F 60.8 °F 29.8 in SE 8.3 mph 14 mph 38.9% 0 in
19:54 88.9 °F 60.6 °F 29.8 in ESE 8.7 mph 14 mph 38.9% 0 in
19:59 88.9 °F 60.3 °F 29.8 in ESE 8.5 mph 14 mph 38.4% 0 in
20:04 88.9 °F 60.4 °F 29.8 in ESE 8.1 mph 14 mph 38.5% 0 in
20:09 88.9 °F 60.6 °F 29.8 in ESE 7.9 mph 12 mph 39% 0 in
20:14 88.5 °F 60.3 °F 29.8 in ESE 7.4 mph 12 mph 38.8% 0 in
20:19 88.5 °F 59.9 °F 29.8 in ESE 7.5 mph 12.3 mph 38.2% 0 in
20:24 88.3 °F 59.5 °F 29.8 in ESE 7.6 mph 13 mph 38% 0 in
20:29 88.3 °F 59.5 °F 29.8 in ESE 7.4 mph 13 mph 38% 0 in
20:34 88.2 °F 59.4 °F 29.8 in ESE 6.9 mph 12 mph 38% 0 in
20:39 88 °F 59.2 °F 29.8 in ESE 6.7 mph 12 mph 38% 0 in
20:44 88 °F 59.5 °F 29.8 in ESE 6.4 mph 11.2 mph 38.5% 0 in
20:49 87.6 °F 59.5 °F 29.8 in ESE 6.6 mph 12 mph 38.9% 0 in
20:54 87.3 °F 59.4 °F 29.8 in ESE 6.9 mph 12 mph 39% 0 in
20:59 87.3 °F 59.2 °F 29.8 in ESE 6.7 mph 10.7 mph 39% 0 in
21:04 87.1 °F 59.4 °F 29.8 in ESE 6.4 mph 11 mph 39.5% 0 in
21:09 86.7 °F 59.5 °F 29.8 in ESE 6.3 mph 10.4 mph 40% 0 in
21:14 86.4 °F 59.2 °F 29.8 in ESE 5.9 mph 10.4 mph 40% 0 in
21:19 86.2 °F 59 °F 29.8 in ESE 6.4 mph 10.7 mph 40% 0 in
21:24 86 °F 59 °F 29.8 in ESE 7.4 mph 11 mph 40.1% 0 in
21:29 85.8 °F 58.6 °F 29.8 in ESE 7.1 mph 11.5 mph 40% 0 in
21:34 85.6 °F 59 °F 29.8 in ESE 6.4 mph 12 mph 40.6% 0 in
21:39 85.5 °F 59.2 °F 29.8 in ESE 6.7 mph 13.8 mph 41% 0 in
21:44 85.3 °F 59 °F 29.8 in Este 7.4 mph 14 mph 41.2% 0 in
21:49 85.1 °F 59.4 °F 29.8 in Este 6.6 mph 8.1 mph 42% 0 in
21:54 84.9 °F 59.4 °F 29.8 in NE 5.2 mph 8 mph 42.2% 0 in
21:59 84.6 °F 60.3 °F 29.8 in NNE 4.8 mph 9.2 mph 43.8% 0 in
22:04 84 °F 62.2 °F 29.8 in NNE 4.3 mph 9.7 mph 48% 0 in
22:09 83.5 °F 63.3 °F 29.8 in NE 4.9 mph 10.4 mph 50.8% 0 in
22:14 82.9 °F 64.9 °F 29.8 in NE 6.2 mph 10 mph 54.6% 0 in
22:19 82.6 °F 65.7 °F 29.8 in NE 6.2 mph 10.4 mph 56.5% 0 in
22:24 82.2 °F 66.6 °F 29.8 in NE 6.2 mph 11.5 mph 59.1% 0 in
22:29 81.9 °F 67.3 °F 29.8 in NE 6.3 mph 12 mph 61.6% 0 in
22:34 81.3 °F 67.6 °F 29.8 in NE 6.4 mph 14.5 mph 63.5% 0 in
22:39 80.8 °F 68.4 °F 29.8 in NE 6.8 mph 15 mph 66.1% 0 in
22:44 80.2 °F 68.9 °F 29.8 in NE 7.6 mph 12.7 mph 68.2% 0 in
22:49 79.9 °F 69.1 °F 29.8 in NNE 7.6 mph 15 mph 69.7% 0 in
22:54 79.3 °F 69.3 °F 29.8 in NE 7.6 mph 15 mph 70.9% 0 in
22:59 79.2 °F 69.4 °F 29.8 in NNE 7.8 mph 13.8 mph 71.9% 0 in
23:04 79 °F 69.3 °F 29.8 in NNE 8.1 mph 14 mph 72.1% 0 in
23:09 79 °F 69.4 °F 29.8 in NNE 8.1 mph 12 mph 73% 0 in
23:14 78.6 °F 69.3 °F 29.8 in NNE 8.1 mph 12 mph 73% 0 in
23:19 78.6 °F 69.3 °F 29.8 in NNE 8.1 mph 12 mph 73.3% 0 in
23:24 78.4 °F 69.4 °F 29.8 in NNE 8.1 mph 13 mph 74% 0 in
23:29 78.3 °F 69.6 °F 29.8 in NNE 8.3 mph 14 mph 74.8% 0 in
23:34 78.3 °F 69.6 °F 29.8 in NE 8.5 mph 14 mph 75% 0 in
23:39 77.9 °F 69.6 °F 29.8 in NNE 8.5 mph 13 mph 75.9% 0 in
23:44 77.7 °F 69.6 °F 29.8 in NE 8.5 mph 13.7 mph 76.4% 0 in
23:49 77.5 °F 69.8 °F 29.8 in NNE 8.3 mph 14 mph 77% 0 in
23:54 77.4 °F 69.6 °F 29.8 in NE 8.1 mph 14 mph 77% 0 in
23:59 77.4 °F 69.6 °F 29.8 in NE 7.6 mph 12 mph 77% 0 in
Murcia-Puente Tocinos, España
Compliments of Weather Underground - 3 mb

La estación de MeteoMurcia.com, publica sus datos en los siguientes proyectos:

Weather Underground PWS IMURCIAP2 Meteoclimatic www.awekas.at

W3Counter
Web Analytics